sensor_id;sensor_type;location;lat;lon;timestamp;P1;durP1;ratioP1;P2;durP2;ratioP2
3567;SDS011;1798;48.486;9.232;2024-02-26T00:00:21;7.10;;;2.90;;
3567;SDS011;1798;48.486;9.232;2024-02-26T00:02:49;6.07;;;2.85;;
3567;SDS011;1798;48.486;9.232;2024-02-26T00:05:16;5.97;;;2.80;;
3567;SDS011;1798;48.486;9.232;2024-02-26T00:07:42;7.30;;;2.92;;
3567;SDS011;1798;48.486;9.232;2024-02-26T00:10:10;5.68;;;3.10;;
3567;SDS011;1798;48.486;9.232;2024-02-26T00:12:37;7.55;;;3.30;;
3567;SDS011;1798;48.486;9.232;2024-02-26T00:15:04;7.10;;;3.20;;
3567;SDS011;1798;48.486;9.232;2024-02-26T00:17:31;6.47;;;3.25;;
3567;SDS011;1798;48.486;9.232;2024-02-26T00:19:59;6.88;;;3.40;;
3567;SDS011;1798;48.486;9.232;2024-02-26T00:22:26;6.10;;;2.93;;
3567;SDS011;1798;48.486;9.232;2024-02-26T00:24:53;5.95;;;3.00;;
3567;SDS011;1798;48.486;9.232;2024-02-26T00:27:19;7.80;;;3.60;;
3567;SDS011;1798;48.486;9.232;2024-02-26T00:29:46;6.53;;;3.25;;
3567;SDS011;1798;48.486;9.232;2024-02-26T00:32:13;6.70;;;3.08;;
3567;SDS011;1798;48.486;9.232;2024-02-26T00:34:39;12.00;;;3.60;;
3567;SDS011;1798;48.486;9.232;2024-02-26T00:37:08;6.30;;;3.08;;
3567;SDS011;1798;48.486;9.232;2024-02-26T00:39:34;6.40;;;3.03;;
3567;SDS011;1798;48.486;9.232;2024-02-26T00:42:01;10.23;;;2.83;;
3567;SDS011;1798;48.486;9.232;2024-02-26T00:44:28;6.43;;;2.97;;
3567;SDS011;1798;48.486;9.232;2024-02-26T00:46:54;5.47;;;2.80;;
3567;SDS011;1798;48.486;9.232;2024-02-26T00:49:21;7.90;;;3.30;;
3567;SDS011;1798;48.486;9.232;2024-02-26T00:51:47;7.30;;;2.90;;
3567;SDS011;1798;48.486;9.232;2024-02-26T00:54:15;6.18;;;2.80;;
3567;SDS011;1798;48.486;9.232;2024-02-26T00:56:42;7.40;;;3.10;;
3567;SDS011;1798;48.486;9.232;2024-02-26T00:59:09;6.30;;;3.22;;
3567;SDS011;1798;48.486;9.232;2024-02-26T01:01:35;6.43;;;3.00;;
3567;SDS011;1798;48.486;9.232;2024-02-26T01:04:02;6.68;;;3.10;;
3567;SDS011;1798;48.486;9.232;2024-02-26T01:06:29;6.25;;;2.80;;
3567;SDS011;1798;48.486;9.232;2024-02-26T01:08:57;6.45;;;2.80;;
3567;SDS011;1798;48.486;9.232;2024-02-26T01:11:25;6.90;;;3.30;;
3567;SDS011;1798;48.486;9.232;2024-02-26T01:13:52;6.32;;;3.20;;
3567;SDS011;1798;48.486;9.232;2024-02-26T01:16:21;5.97;;;2.90;;
3567;SDS011;1798;48.486;9.232;2024-02-26T01:18:48;6.43;;;3.43;;
3567;SDS011;1798;48.486;9.232;2024-02-26T01:21:14;7.10;;;3.20;;
3567;SDS011;1798;48.486;9.232;2024-02-26T01:23:41;8.90;;;3.17;;
3567;SDS011;1798;48.486;9.232;2024-02-26T01:26:08;5.53;;;2.70;;
3567;SDS011;1798;48.486;9.232;2024-02-26T01:28:36;6.22;;;3.20;;
3567;SDS011;1798;48.486;9.232;2024-02-26T01:31:03;6.50;;;2.95;;
3567;SDS011;1798;48.486;9.232;2024-02-26T01:33:31;6.03;;;2.90;;
3567;SDS011;1798;48.486;9.232;2024-02-26T01:35:58;6.60;;;3.13;;
3567;SDS011;1798;48.486;9.232;2024-02-26T01:38:25;6.15;;;2.92;;
3567;SDS011;1798;48.486;9.232;2024-02-26T01:40:52;6.25;;;3.30;;
3567;SDS011;1798;48.486;9.232;2024-02-26T01:43:19;6.45;;;2.90;;
3567;SDS011;1798;48.486;9.232;2024-02-26T01:45:48;6.88;;;3.22;;
3567;SDS011;1798;48.486;9.232;2024-02-26T01:48:15;5.90;;;3.00;;
3567;SDS011;1798;48.486;9.232;2024-02-26T01:50:42;6.00;;;3.00;;
3567;SDS011;1798;48.486;9.232;2024-02-26T01:53:09;6.60;;;3.15;;
3567;SDS011;1798;48.486;9.232;2024-02-26T01:55:36;8.30;;;3.28;;
3567;SDS011;1798;48.486;9.232;2024-02-26T01:58:03;6.82;;;2.80;;
3567;SDS011;1798;48.486;9.232;2024-02-26T02:00:29;7.30;;;3.22;;
3567;SDS011;1798;48.486;9.232;2024-02-26T02:02:58;6.40;;;3.00;;
3567;SDS011;1798;48.486;9.232;2024-02-26T02:05:25;7.32;;;3.35;;
3567;SDS011;1798;48.486;9.232;2024-02-26T02:07:52;7.05;;;3.45;;
3567;SDS011;1798;48.486;9.232;2024-02-26T02:10:20;9.87;;;4.10;;
3567;SDS011;1798;48.486;9.232;2024-02-26T02:12:50;7.10;;;3.63;;
3567;SDS011;1798;48.486;9.232;2024-02-26T02:15:17;10.13;;;3.20;;
3567;SDS011;1798;48.486;9.232;2024-02-26T02:17:43;6.80;;;3.53;;
3567;SDS011;1798;48.486;9.232;2024-02-26T02:20:16;7.07;;;3.50;;
3567;SDS011;1798;48.486;9.232;2024-02-26T02:22:44;8.10;;;3.50;;
3567;SDS011;1798;48.486;9.232;2024-02-26T02:25:11;9.80;;;3.50;;
3567;SDS011;1798;48.486;9.232;2024-02-26T02:27:39;7.57;;;3.53;;
3567;SDS011;1798;48.486;9.232;2024-02-26T02:30:06;6.40;;;3.33;;
3567;SDS011;1798;48.486;9.232;2024-02-26T02:32:33;7.40;;;3.72;;
3567;SDS011;1798;48.486;9.232;2024-02-26T02:35:00;8.52;;;3.75;;
3567;SDS011;1798;48.486;9.232;2024-02-26T02:37:27;7.22;;;3.40;;
3567;SDS011;1798;48.486;9.232;2024-02-26T02:39:55;8.20;;;3.55;;
3567;SDS011;1798;48.486;9.232;2024-02-26T02:42:22;7.22;;;3.20;;
3567;SDS011;1798;48.486;9.232;2024-02-26T02:44:49;8.00;;;3.10;;
3567;SDS011;1798;48.486;9.232;2024-02-26T02:47:16;9.25;;;3.45;;
3567;SDS011;1798;48.486;9.232;2024-02-26T02:49:43;5.50;;;2.80;;
3567;SDS011;1798;48.486;9.232;2024-02-26T02:52:09;6.97;;;3.00;;
3567;SDS011;1798;48.486;9.232;2024-02-26T02:54:36;7.32;;;3.10;;
3567;SDS011;1798;48.486;9.232;2024-02-26T02:57:06;6.68;;;3.33;;
3567;SDS011;1798;48.486;9.232;2024-02-26T02:59:33;6.50;;;3.03;;
3567;SDS011;1798;48.486;9.232;2024-02-26T03:02:00;6.68;;;3.20;;
3567;SDS011;1798;48.486;9.232;2024-02-26T03:04:26;7.13;;;3.25;;
3567;SDS011;1798;48.486;9.232;2024-02-26T03:06:54;8.02;;;3.05;;
3567;SDS011;1798;48.486;9.232;2024-02-26T03:09:21;7.80;;;3.00;;
3567;SDS011;1798;48.486;9.232;2024-02-26T03:11:48;5.78;;;3.05;;
3567;SDS011;1798;48.486;9.232;2024-02-26T03:14:16;6.07;;;2.95;;
3567;SDS011;1798;48.486;9.232;2024-02-26T03:16:43;7.80;;;2.92;;
3567;SDS011;1798;48.486;9.232;2024-02-26T03:19:10;6.60;;;2.90;;
3567;SDS011;1798;48.486;9.232;2024-02-26T03:21:36;5.88;;;3.17;;
3567;SDS011;1798;48.486;9.232;2024-02-26T03:24:03;7.70;;;2.88;;
3567;SDS011;1798;48.486;9.232;2024-02-26T03:26:30;12.35;;;3.67;;
3567;SDS011;1798;48.486;9.232;2024-02-26T03:28:57;9.57;;;3.10;;
3567;SDS011;1798;48.486;9.232;2024-02-26T03:31:25;8.53;;;3.50;;
3567;SDS011;1798;48.486;9.232;2024-02-26T03:33:52;6.43;;;3.30;;
3567;SDS011;1798;48.486;9.232;2024-02-26T03:36:18;9.30;;;3.00;;
3567;SDS011;1798;48.486;9.232;2024-02-26T03:38:46;7.10;;;3.10;;
3567;SDS011;1798;48.486;9.232;2024-02-26T03:41:13;6.40;;;3.17;;
3567;SDS011;1798;48.486;9.232;2024-02-26T03:43:39;6.30;;;3.22;;
3567;SDS011;1798;48.486;9.232;2024-02-26T03:46:07;9.85;;;3.50;;
3567;SDS011;1798;48.486;9.232;2024-02-26T03:48:35;6.75;;;3.30;;
3567;SDS011;1798;48.486;9.232;2024-02-26T03:51:01;6.82;;;3.20;;
3567;SDS011;1798;48.486;9.232;2024-02-26T03:53:28;6.47;;;3.13;;
3567;SDS011;1798;48.486;9.232;2024-02-26T03:55:55;6.60;;;3.10;;
3567;SDS011;1798;48.486;9.232;2024-02-26T03:58:21;7.88;;;3.50;;
3567;SDS011;1798;48.486;9.232;2024-02-26T04:00:48;6.15;;;3.08;;
3567;SDS011;1798;48.486;9.232;2024-02-26T04:03:15;6.10;;;2.90;;
3567;SDS011;1798;48.486;9.232;2024-02-26T04:05:43;7.30;;;3.20;;
3567;SDS011;1798;48.486;9.232;2024-02-26T04:08:09;9.82;;;3.30;;
3567;SDS011;1798;48.486;9.232;2024-02-26T04:10:36;8.10;;;3.47;;
3567;SDS011;1798;48.486;9.232;2024-02-26T04:13:03;8.00;;;3.63;;
3567;SDS011;1798;48.486;9.232;2024-02-26T04:15:30;7.03;;;3.30;;
3567;SDS011;1798;48.486;9.232;2024-02-26T04:17:59;6.90;;;3.43;;
3567;SDS011;1798;48.486;9.232;2024-02-26T04:20:27;8.40;;;3.17;;
3567;SDS011;1798;48.486;9.232;2024-02-26T04:22:55;9.75;;;3.35;;
3567;SDS011;1798;48.486;9.232;2024-02-26T04:25:22;8.38;;;3.00;;
3567;SDS011;1798;48.486;9.232;2024-02-26T04:27:49;8.88;;;3.88;;
3567;SDS011;1798;48.486;9.232;2024-02-26T04:30:15;8.48;;;3.15;;
3567;SDS011;1798;48.486;9.232;2024-02-26T04:32:43;6.53;;;3.30;;
3567;SDS011;1798;48.486;9.232;2024-02-26T04:35:10;7.68;;;3.08;;
3567;SDS011;1798;48.486;9.232;2024-02-26T04:37:36;7.07;;;3.00;;
3567;SDS011;1798;48.486;9.232;2024-02-26T04:40:05;6.80;;;3.03;;
3567;SDS011;1798;48.486;9.232;2024-02-26T04:42:33;7.80;;;2.90;;
3567;SDS011;1798;48.486;9.232;2024-02-26T04:44:59;5.55;;;2.90;;
3567;SDS011;1798;48.486;9.232;2024-02-26T04:47:28;8.00;;;3.00;;
3567;SDS011;1798;48.486;9.232;2024-02-26T04:49:55;6.78;;;2.90;;
3567;SDS011;1798;48.486;9.232;2024-02-26T04:52:21;5.80;;;3.00;;
3567;SDS011;1798;48.486;9.232;2024-02-26T04:54:48;9.40;;;3.07;;
3567;SDS011;1798;48.486;9.232;2024-02-26T04:57:16;7.30;;;3.25;;
3567;SDS011;1798;48.486;9.232;2024-02-26T04:59:44;9.40;;;3.15;;
3567;SDS011;1798;48.486;9.232;2024-02-26T05:02:10;6.95;;;3.28;;
3567;SDS011;1798;48.486;9.232;2024-02-26T05:04:37;8.20;;;3.70;;
3567;SDS011;1798;48.486;9.232;2024-02-26T05:07:04;6.78;;;3.42;;
3567;SDS011;1798;48.486;9.232;2024-02-26T05:09:31;7.43;;;3.60;;
3567;SDS011;1798;48.486;9.232;2024-02-26T05:11:58;18.92;;;3.60;;
3567;SDS011;1798;48.486;9.232;2024-02-26T05:14:26;16.77;;;4.00;;
3567;SDS011;1798;48.486;9.232;2024-02-26T05:16:53;15.32;;;3.92;;
3567;SDS011;1798;48.486;9.232;2024-02-26T05:19:20;10.43;;;3.92;;
3567;SDS011;1798;48.486;9.232;2024-02-26T05:21:46;10.38;;;3.33;;
3567;SDS011;1798;48.486;9.232;2024-02-26T05:24:15;13.25;;;3.17;;
3567;SDS011;1798;48.486;9.232;2024-02-26T05:26:42;17.27;;;3.53;;
3567;SDS011;1798;48.486;9.232;2024-02-26T05:29:09;9.85;;;3.60;;
3567;SDS011;1798;48.486;9.232;2024-02-26T05:31:37;8.07;;;3.50;;
3567;SDS011;1798;48.486;9.232;2024-02-26T05:34:04;8.43;;;4.03;;
3567;SDS011;1798;48.486;9.232;2024-02-26T05:36:31;7.03;;;3.50;;
3567;SDS011;1798;48.486;9.232;2024-02-26T05:38:58;7.80;;;3.20;;
3567;SDS011;1798;48.486;9.232;2024-02-26T05:41:25;9.65;;;4.30;;
3567;SDS011;1798;48.486;9.232;2024-02-26T05:43:52;8.48;;;3.60;;
3567;SDS011;1798;48.486;9.232;2024-02-26T05:46:19;9.20;;;3.60;;
3567;SDS011;1798;48.486;9.232;2024-02-26T05:48:48;10.03;;;3.03;;
3567;SDS011;1798;48.486;9.232;2024-02-26T05:51:15;10.15;;;4.05;;
3567;SDS011;1798;48.486;9.232;2024-02-26T05:53:42;7.25;;;3.75;;
3567;SDS011;1798;48.486;9.232;2024-02-26T05:56:09;6.68;;;3.17;;
3567;SDS011;1798;48.486;9.232;2024-02-26T05:58:36;8.38;;;3.50;;
3567;SDS011;1798;48.486;9.232;2024-02-26T06:01:03;6.20;;;3.47;;
3567;SDS011;1798;48.486;9.232;2024-02-26T06:03:30;7.18;;;3.30;;
3567;SDS011;1798;48.486;9.232;2024-02-26T06:05:59;7.55;;;3.30;;
3567;SDS011;1798;48.486;9.232;2024-02-26T06:08:28;10.20;;;3.60;;
3567;SDS011;1798;48.486;9.232;2024-02-26T06:10:54;9.88;;;3.50;;
3567;SDS011;1798;48.486;9.232;2024-02-26T06:13:21;6.35;;;2.97;;
3567;SDS011;1798;48.486;9.232;2024-02-26T06:15:48;11.50;;;3.17;;
3567;SDS011;1798;48.486;9.232;2024-02-26T06:18:15;9.00;;;3.35;;
3567;SDS011;1798;48.486;9.232;2024-02-26T06:20:41;10.50;;;3.30;;
3567;SDS011;1798;48.486;9.232;2024-02-26T06:23:09;8.30;;;3.28;;
3567;SDS011;1798;48.486;9.232;2024-02-26T06:25:36;7.70;;;3.58;;
3567;SDS011;1798;48.486;9.232;2024-02-26T06:28:03;12.20;;;3.40;;
3567;SDS011;1798;48.486;9.232;2024-02-26T06:30:30;13.70;;;3.22;;
3567;SDS011;1798;48.486;9.232;2024-02-26T06:32:59;9.63;;;3.90;;
3567;SDS011;1798;48.486;9.232;2024-02-26T06:35:26;8.90;;;3.00;;
3567;SDS011;1798;48.486;9.232;2024-02-26T06:37:53;12.02;;;3.47;;
3567;SDS011;1798;48.486;9.232;2024-02-26T06:40:21;7.68;;;3.90;;
3567;SDS011;1798;48.486;9.232;2024-02-26T06:42:48;7.50;;;3.70;;
3567;SDS011;1798;48.486;9.232;2024-02-26T06:45:15;7.85;;;3.83;;
3567;SDS011;1798;48.486;9.232;2024-02-26T06:47:42;16.75;;;5.32;;
3567;SDS011;1798;48.486;9.232;2024-02-26T06:50:09;33.07;;;4.80;;
3567;SDS011;1798;48.486;9.232;2024-02-26T06:52:37;15.83;;;4.50;;
3567;SDS011;1798;48.486;9.232;2024-02-26T06:55:04;29.33;;;5.50;;
3567;SDS011;1798;48.486;9.232;2024-02-26T06:57:34;17.00;;;4.70;;
3567;SDS011;1798;48.486;9.232;2024-02-26T07:00:01;12.85;;;5.65;;
3567;SDS011;1798;48.486;9.232;2024-02-26T07:02:29;11.15;;;5.18;;
3567;SDS011;1798;48.486;9.232;2024-02-26T07:04:55;24.13;;;4.83;;
3567;SDS011;1798;48.486;9.232;2024-02-26T07:07:23;17.33;;;5.40;;
3567;SDS011;1798;48.486;9.232;2024-02-26T07:09:49;21.88;;;5.30;;
3567;SDS011;1798;48.486;9.232;2024-02-26T07:12:16;13.40;;;6.07;;
3567;SDS011;1798;48.486;9.232;2024-02-26T07:14:46;15.00;;;6.07;;
3567;SDS011;1798;48.486;9.232;2024-02-26T07:17:12;18.80;;;5.80;;
3567;SDS011;1798;48.486;9.232;2024-02-26T07:19:41;14.88;;;5.55;;
3567;SDS011;1798;48.486;9.232;2024-02-26T07:22:08;13.93;;;6.07;;
3567;SDS011;1798;48.486;9.232;2024-02-26T07:24:35;11.40;;;5.60;;
3567;SDS011;1798;48.486;9.232;2024-02-26T07:27:02;24.50;;;5.80;;
3567;SDS011;1798;48.486;9.232;2024-02-26T07:29:29;19.42;;;4.70;;
3567;SDS011;1798;48.486;9.232;2024-02-26T07:31:58;13.70;;;5.25;;
3567;SDS011;1798;48.486;9.232;2024-02-26T07:34:25;9.88;;;4.82;;
3567;SDS011;1798;48.486;9.232;2024-02-26T07:36:54;12.60;;;5.00;;
3567;SDS011;1798;48.486;9.232;2024-02-26T07:39:21;9.57;;;5.20;;
3567;SDS011;1798;48.486;9.232;2024-02-26T07:41:48;17.88;;;5.05;;
3567;SDS011;1798;48.486;9.232;2024-02-26T07:44:16;12.75;;;5.80;;
3567;SDS011;1798;48.486;9.232;2024-02-26T07:46:43;26.00;;;6.90;;
3567;SDS011;1798;48.486;9.232;2024-02-26T07:49:11;13.10;;;3.90;;
3567;SDS011;1798;48.486;9.232;2024-02-26T07:51:38;10.27;;;4.53;;
3567;SDS011;1798;48.486;9.232;2024-02-26T07:54:05;13.02;;;4.93;;
3567;SDS011;1798;48.486;9.232;2024-02-26T07:56:31;23.15;;;6.93;;
3567;SDS011;1798;48.486;9.232;2024-02-26T07:58:58;19.77;;;6.33;;
3567;SDS011;1798;48.486;9.232;2024-02-26T08:01:25;13.27;;;5.32;;
3567;SDS011;1798;48.486;9.232;2024-02-26T08:03:52;15.20;;;5.07;;
3567;SDS011;1798;48.486;9.232;2024-02-26T08:06:20;9.88;;;4.85;;
3567;SDS011;1798;48.486;9.232;2024-02-26T08:08:46;11.13;;;5.40;;
3567;SDS011;1798;48.486;9.232;2024-02-26T08:11:14;11.02;;;4.60;;
3567;SDS011;1798;48.486;9.232;2024-02-26T08:13:41;11.55;;;5.15;;
3567;SDS011;1798;48.486;9.232;2024-02-26T08:16:07;10.80;;;4.50;;
3567;SDS011;1798;48.486;9.232;2024-02-26T08:18:34;9.20;;;4.68;;
3567;SDS011;1798;48.486;9.232;2024-02-26T08:21:01;8.20;;;4.20;;
3567;SDS011;1798;48.486;9.232;2024-02-26T08:23:30;9.63;;;4.00;;
3567;SDS011;1798;48.486;9.232;2024-02-26T08:25:57;15.00;;;4.30;;
3567;SDS011;1798;48.486;9.232;2024-02-26T08:28:23;12.33;;;4.40;;
3567;SDS011;1798;48.486;9.232;2024-02-26T08:30:50;16.02;;;4.53;;
3567;SDS011;1798;48.486;9.232;2024-02-26T08:33:17;11.15;;;4.40;;
3567;SDS011;1798;48.486;9.232;2024-02-26T08:35:43;8.73;;;4.88;;
3567;SDS011;1798;48.486;9.232;2024-02-26T08:38:10;11.65;;;5.05;;
3567;SDS011;1798;48.486;9.232;2024-02-26T08:40:40;9.75;;;4.90;;
3567;SDS011;1798;48.486;9.232;2024-02-26T08:43:07;10.40;;;4.75;;
3567;SDS011;1798;48.486;9.232;2024-02-26T08:45:34;8.25;;;3.80;;
3567;SDS011;1798;48.486;9.232;2024-02-26T08:48:02;13.93;;;5.53;;
3567;SDS011;1798;48.486;9.232;2024-02-26T08:50:29;7.75;;;4.10;;
3567;SDS011;1798;48.486;9.232;2024-02-26T08:52:56;8.38;;;4.70;;
3567;SDS011;1798;48.486;9.232;2024-02-26T08:55:23;6.68;;;3.65;;
3567;SDS011;1798;48.486;9.232;2024-02-26T08:57:51;9.55;;;4.10;;
3567;SDS011;1798;48.486;9.232;2024-02-26T09:00:18;7.35;;;3.70;;
3567;SDS011;1798;48.486;9.232;2024-02-26T09:02:45;6.03;;;3.28;;
3567;SDS011;1798;48.486;9.232;2024-02-26T09:05:12;9.00;;;3.42;;
3567;SDS011;1798;48.486;9.232;2024-02-26T09:07:38;6.72;;;3.70;;
3567;SDS011;1798;48.486;9.232;2024-02-26T09:10:05;10.93;;;4.72;;
3567;SDS011;1798;48.486;9.232;2024-02-26T09:12:35;10.65;;;3.95;;
3567;SDS011;1798;48.486;9.232;2024-02-26T09:15:03;7.15;;;3.72;;
3567;SDS011;1798;48.486;9.232;2024-02-26T09:17:31;9.23;;;4.57;;
3567;SDS011;1798;48.486;9.232;2024-02-26T09:19:57;14.00;;;4.50;;
3567;SDS011;1798;48.486;9.232;2024-02-26T09:22:25;10.93;;;5.20;;
3567;SDS011;1798;48.486;9.232;2024-02-26T09:24:51;13.00;;;4.82;;
3567;SDS011;1798;48.486;9.232;2024-02-26T09:27:18;7.20;;;3.70;;
3567;SDS011;1798;48.486;9.232;2024-02-26T09:29:45;10.90;;;4.00;;
3567;SDS011;1798;48.486;9.232;2024-02-26T09:32:13;14.15;;;4.70;;
3567;SDS011;1798;48.486;9.232;2024-02-26T09:34:42;6.85;;;3.58;;
3567;SDS011;1798;48.486;9.232;2024-02-26T09:37:10;12.05;;;4.05;;
3567;SDS011;1798;48.486;9.232;2024-02-26T09:39:37;14.02;;;4.75;;
3567;SDS011;1798;48.486;9.232;2024-02-26T09:42:04;11.80;;;4.38;;
3567;SDS011;1798;48.486;9.232;2024-02-26T09:44:34;14.23;;;5.60;;
3567;SDS011;1798;48.486;9.232;2024-02-26T09:47:03;10.55;;;4.65;;
3567;SDS011;1798;48.486;9.232;2024-02-26T09:49:33;14.88;;;5.18;;
3567;SDS011;1798;48.486;9.232;2024-02-26T09:52:01;9.77;;;4.40;;
3567;SDS011;1798;48.486;9.232;2024-02-26T09:54:30;7.85;;;3.88;;
3567;SDS011;1798;48.486;9.232;2024-02-26T09:56:57;9.70;;;4.45;;
3567;SDS011;1798;48.486;9.232;2024-02-26T09:59:26;7.45;;;3.83;;
3567;SDS011;1798;48.486;9.232;2024-02-26T10:01:53;17.98;;;5.60;;
3567;SDS011;1798;48.486;9.232;2024-02-26T10:04:21;7.57;;;3.78;;
3567;SDS011;1798;48.486;9.232;2024-02-26T10:06:49;8.88;;;4.18;;
3567;SDS011;1798;48.486;9.232;2024-02-26T10:09:17;10.50;;;3.85;;
3567;SDS011;1798;48.486;9.232;2024-02-26T10:11:44;7.95;;;3.90;;
3567;SDS011;1798;48.486;9.232;2024-02-26T10:14:11;11.27;;;4.40;;
3567;SDS011;1798;48.486;9.232;2024-02-26T10:16:38;9.80;;;3.92;;
3567;SDS011;1798;48.486;9.232;2024-02-26T10:19:04;6.70;;;3.60;;
3567;SDS011;1798;48.486;9.232;2024-02-26T10:21:31;8.23;;;3.80;;
3567;SDS011;1798;48.486;9.232;2024-02-26T10:24:02;7.05;;;3.80;;
3567;SDS011;1798;48.486;9.232;2024-02-26T10:26:29;8.53;;;4.03;;
3567;SDS011;1798;48.486;9.232;2024-02-26T10:28:59;8.00;;;3.80;;
3567;SDS011;1798;48.486;9.232;2024-02-26T10:31:26;8.65;;;4.00;;
3567;SDS011;1798;48.486;9.232;2024-02-26T10:33:55;7.82;;;4.18;;
3567;SDS011;1798;48.486;9.232;2024-02-26T10:36:21;9.25;;;4.40;;
3567;SDS011;1798;48.486;9.232;2024-02-26T10:38:48;10.98;;;4.25;;
3567;SDS011;1798;48.486;9.232;2024-02-26T10:41:16;10.73;;;3.70;;
3567;SDS011;1798;48.486;9.232;2024-02-26T10:43:43;10.20;;;4.60;;
3567;SDS011;1798;48.486;9.232;2024-02-26T10:46:09;7.20;;;3.53;;
3567;SDS011;1798;48.486;9.232;2024-02-26T10:48:36;8.18;;;4.07;;
3567;SDS011;1798;48.486;9.232;2024-02-26T10:51:04;8.10;;;3.90;;
3567;SDS011;1798;48.486;9.232;2024-02-26T10:53:31;7.47;;;3.90;;
3567;SDS011;1798;48.486;9.232;2024-02-26T10:56:01;10.38;;;3.80;;
3567;SDS011;1798;48.486;9.232;2024-02-26T10:58:31;11.52;;;4.40;;
3567;SDS011;1798;48.486;9.232;2024-02-26T11:01:01;10.18;;;4.72;;
3567;SDS011;1798;48.486;9.232;2024-02-26T11:03:28;8.55;;;4.00;;
3567;SDS011;1798;48.486;9.232;2024-02-26T11:05:59;14.57;;;4.20;;
3567;SDS011;1798;48.486;9.232;2024-02-26T11:08:26;11.00;;;4.30;;
3567;SDS011;1798;48.486;9.232;2024-02-26T11:10:53;11.25;;;4.05;;
3567;SDS011;1798;48.486;9.232;2024-02-26T11:13:21;11.13;;;4.45;;
3567;SDS011;1798;48.486;9.232;2024-02-26T11:15:49;10.00;;;4.30;;
3567;SDS011;1798;48.486;9.232;2024-02-26T11:18:16;7.70;;;3.90;;
3567;SDS011;1798;48.486;9.232;2024-02-26T11:20:44;8.50;;;4.43;;
3567;SDS011;1798;48.486;9.232;2024-02-26T11:23:12;9.38;;;4.43;;
3567;SDS011;1798;48.486;9.232;2024-02-26T11:25:39;10.65;;;4.30;;
3567;SDS011;1798;48.486;9.232;2024-02-26T11:28:06;9.25;;;4.50;;
3567;SDS011;1798;48.486;9.232;2024-02-26T11:30:38;8.33;;;4.43;;
3567;SDS011;1798;48.486;9.232;2024-02-26T11:33:08;7.80;;;3.90;;
3567;SDS011;1798;48.486;9.232;2024-02-26T11:35:35;10.13;;;4.20;;
3567;SDS011;1798;48.486;9.232;2024-02-26T11:38:02;8.75;;;4.30;;
3567;SDS011;1798;48.486;9.232;2024-02-26T11:40:31;11.17;;;4.23;;
3567;SDS011;1798;48.486;9.232;2024-02-26T11:42:58;9.35;;;4.22;;
3567;SDS011;1798;48.486;9.232;2024-02-26T11:45:47;8.67;;;4.10;;
3567;SDS011;1798;48.486;9.232;2024-02-26T11:48:22;8.30;;;4.30;;
3567;SDS011;1798;48.486;9.232;2024-02-26T11:50:51;8.80;;;4.70;;
3567;SDS011;1798;48.486;9.232;2024-02-26T11:53:21;12.70;;;5.80;;
3567;SDS011;1798;48.486;9.232;2024-02-26T11:58:49;17.17;;;6.05;;
3567;SDS011;1798;48.486;9.232;2024-02-26T12:04:12;23.75;;;6.70;;
3567;SDS011;1798;48.486;9.232;2024-02-26T12:06:41;15.95;;;6.10;;
3567;SDS011;1798;48.486;9.232;2024-02-26T12:09:08;12.70;;;5.90;;
3567;SDS011;1798;48.486;9.232;2024-02-26T12:11:37;17.25;;;6.07;;
3567;SDS011;1798;48.486;9.232;2024-02-26T12:14:05;22.05;;;6.65;;
3567;SDS011;1798;48.486;9.232;2024-02-26T12:16:34;13.20;;;6.15;;
3567;SDS011;1798;48.486;9.232;2024-02-26T12:19:02;16.92;;;6.57;;
3567;SDS011;1798;48.486;9.232;2024-02-26T12:21:32;12.13;;;5.90;;
3567;SDS011;1798;48.486;9.232;2024-02-26T12:24:06;14.75;;;6.10;;
3567;SDS011;1798;48.486;9.232;2024-02-26T12:26:35;20.20;;;6.78;;
3567;SDS011;1798;48.486;9.232;2024-02-26T12:29:01;11.15;;;5.55;;
3567;SDS011;1798;48.486;9.232;2024-02-26T12:31:28;14.15;;;6.45;;
3567;SDS011;1798;48.486;9.232;2024-02-26T12:33:56;11.88;;;6.30;;
3567;SDS011;1798;48.486;9.232;2024-02-26T12:36:23;12.37;;;6.40;;
3567;SDS011;1798;48.486;9.232;2024-02-26T12:38:51;14.60;;;6.20;;
3567;SDS011;1798;48.486;9.232;2024-02-26T12:41:18;13.57;;;5.97;;
3567;SDS011;1798;48.486;9.232;2024-02-26T12:43:45;12.03;;;5.37;;
3567;SDS011;1798;48.486;9.232;2024-02-26T12:46:12;16.33;;;6.60;;
3567;SDS011;1798;48.486;9.232;2024-02-26T12:48:41;10.90;;;5.60;;
3567;SDS011;1798;48.486;9.232;2024-02-26T12:51:09;11.23;;;5.60;;
3567;SDS011;1798;48.486;9.232;2024-02-26T12:53:36;15.38;;;5.10;;
3567;SDS011;1798;48.486;9.232;2024-02-26T12:56:06;9.05;;;4.22;;
3567;SDS011;1798;48.486;9.232;2024-02-26T12:58:34;14.15;;;5.70;;
3567;SDS011;1798;48.486;9.232;2024-02-26T13:01:03;11.40;;;4.75;;
3567;SDS011;1798;48.486;9.232;2024-02-26T13:03:30;10.00;;;5.28;;
3567;SDS011;1798;48.486;9.232;2024-02-26T13:06:00;10.40;;;5.32;;
3567;SDS011;1798;48.486;9.232;2024-02-26T13:08:31;15.32;;;5.32;;
3567;SDS011;1798;48.486;9.232;2024-02-26T13:10:58;12.85;;;5.72;;
3567;SDS011;1798;48.486;9.232;2024-02-26T13:13:26;13.07;;;5.53;;
3567;SDS011;1798;48.486;9.232;2024-02-26T13:16:00;13.13;;;6.27;;
3567;SDS011;1798;48.486;9.232;2024-02-26T13:18:27;14.85;;;6.07;;
3567;SDS011;1798;48.486;9.232;2024-02-26T13:21:05;11.60;;;5.00;;
3567;SDS011;1798;48.486;9.232;2024-02-26T13:23:33;10.10;;;4.80;;
3567;SDS011;1798;48.486;9.232;2024-02-26T13:26:03;11.93;;;5.10;;
3567;SDS011;1798;48.486;9.232;2024-02-26T13:28:31;14.02;;;5.20;;
3567;SDS011;1798;48.486;9.232;2024-02-26T13:30:58;11.05;;;5.03;;
3567;SDS011;1798;48.486;9.232;2024-02-26T13:33:26;9.38;;;4.30;;
3567;SDS011;1798;48.486;9.232;2024-02-26T13:35:53;15.45;;;5.53;;
3567;SDS011;1798;48.486;9.232;2024-02-26T13:38:20;10.32;;;5.20;;
3567;SDS011;1798;48.486;9.232;2024-02-26T13:40:47;8.50;;;4.32;;
3567;SDS011;1798;48.486;9.232;2024-02-26T13:43:14;11.73;;;5.47;;
3567;SDS011;1798;48.486;9.232;2024-02-26T13:45:42;9.70;;;5.20;;
3567;SDS011;1798;48.486;9.232;2024-02-26T13:48:09;11.18;;;4.80;;
3567;SDS011;1798;48.486;9.232;2024-02-26T13:50:36;10.10;;;5.10;;
3567;SDS011;1798;48.486;9.232;2024-02-26T13:53:03;16.38;;;5.32;;
3567;SDS011;1798;48.486;9.232;2024-02-26T13:55:33;9.27;;;4.60;;
3567;SDS011;1798;48.486;9.232;2024-02-26T13:58:00;13.40;;;5.10;;
3567;SDS011;1798;48.486;9.232;2024-02-26T14:00:27;11.57;;;5.13;;
3567;SDS011;1798;48.486;9.232;2024-02-26T14:02:55;17.05;;;5.07;;
3567;SDS011;1798;48.486;9.232;2024-02-26T14:05:22;11.65;;;5.60;;
3567;SDS011;1798;48.486;9.232;2024-02-26T14:07:48;9.90;;;4.85;;
3567;SDS011;1798;48.486;9.232;2024-02-26T14:10:15;10.87;;;4.80;;
3567;SDS011;1798;48.486;9.232;2024-02-26T14:12:42;11.77;;;4.50;;
3567;SDS011;1798;48.486;9.232;2024-02-26T14:15:09;10.70;;;4.93;;
3567;SDS011;1798;48.486;9.232;2024-02-26T14:17:37;8.55;;;4.30;;
3567;SDS011;1798;48.486;9.232;2024-02-26T14:20:05;10.55;;;4.90;;
3567;SDS011;1798;48.486;9.232;2024-02-26T14:22:34;12.10;;;4.60;;
3567;SDS011;1798;48.486;9.232;2024-02-26T14:25:03;12.40;;;4.93;;
3567;SDS011;1798;48.486;9.232;2024-02-26T14:27:30;9.25;;;5.05;;
3567;SDS011;1798;48.486;9.232;2024-02-26T14:29:57;11.90;;;5.10;;
3567;SDS011;1798;48.486;9.232;2024-02-26T14:32:24;9.65;;;4.78;;
3567;SDS011;1798;48.486;9.232;2024-02-26T14:34:50;9.20;;;4.82;;
3567;SDS011;1798;48.486;9.232;2024-02-26T14:37:19;10.48;;;4.72;;
3567;SDS011;1798;48.486;9.232;2024-02-26T14:39:45;14.93;;;4.10;;
3567;SDS011;1798;48.486;9.232;2024-02-26T14:42:13;10.23;;;3.35;;
3567;SDS011;1798;48.486;9.232;2024-02-26T14:44:42;12.30;;;4.07;;
3567;SDS011;1798;48.486;9.232;2024-02-26T14:47:09;5.78;;;2.85;;
3567;SDS011;1798;48.486;9.232;2024-02-26T14:49:36;7.80;;;3.08;;
3567;SDS011;1798;48.486;9.232;2024-02-26T14:52:02;6.30;;;2.97;;
3567;SDS011;1798;48.486;9.232;2024-02-26T14:54:31;9.63;;;3.80;;
3567;SDS011;1798;48.486;9.232;2024-02-26T14:57:02;6.30;;;2.78;;
3567;SDS011;1798;48.486;9.232;2024-02-26T14:59:31;5.60;;;2.60;;
3567;SDS011;1798;48.486;9.232;2024-02-26T15:01:58;4.53;;;2.00;;
3567;SDS011;1798;48.486;9.232;2024-02-26T15:04:25;5.55;;;2.17;;
3567;SDS011;1798;48.486;9.232;2024-02-26T15:06:52;7.70;;;2.53;;
3567;SDS011;1798;48.486;9.232;2024-02-26T15:09:18;5.68;;;2.20;;
3567;SDS011;1798;48.486;9.232;2024-02-26T15:11:47;4.93;;;2.20;;
3567;SDS011;1798;48.486;9.232;2024-02-26T15:14:14;4.93;;;2.08;;
3567;SDS011;1798;48.486;9.232;2024-02-26T15:16:40;4.97;;;2.30;;